Felderville, South Carolina
Current Conditions -  °F | °C
As of 10:14 PM on Sunday 21 Dec 2014 (Local Time) from KOGB Reporting Station
Light Rain Light Rain  
Wind Chill: 43°   Ceiling: 3300
Heat Index: 47°   Visibility: 5mi
Dew Point: 43°   Wind: 9mph
Humidity: 86%   Direction: 70°ENE
Pressure: 30.13"   Gusts: NA
Location:  33.4623°N, 80.5654°W
Report Text: KOGB 220314Z AUTO 07008KT 5SM -RA BR FEW020 BKN033 OVC049 08/06 A3013 RMK AO2 PRESFR P0007 T00830061
Loading
Personal Weather Stations






























Interactive Weather Map New forecast layout! Learn more

10-Day Weather Forecast

Advertisements
Track Severe Weather on mobile